TimeGMT,TemperatureF,Dew PointF,Humidity,Sea Level PressureIn,VisibilityMPH,Wind Direction,Wind SpeedMPH,Gust SpeedMPH,PrecipitationIn,Events,Conditions,WindDirDegrees,DateUTC
12:00 AM,36,32,79,29.45,11,NNE,15.7,,,,Light Ice Pellets,20,2013-03-19 00:00:00
12:00 AM,37.4,32.0,81,29.44,6.2,NNE,13.8,-,N/A,,Mostly Cloudy,20,2013-03-19 00:00:00
12:30 AM,35.6,32.0,87,29.44,6.2,NNE,12.7,-,N/A,,Mostly Cloudy,30,2013-03-19 00:30:00
1:00 AM,35.6,32.0,87,29.44,6.2,NNE,13.8,-,N/A,,Mostly Cloudy,30,2013-03-19 01:00:00
1:30 AM,35.6,30.2,81,29.44,6.2,NNE,10.4,-,N/A,,Mostly Cloudy,30,2013-03-19 01:30:00
2:00 AM,35.6,32.0,87,29.44,6.2,North,8.1,-,N/A,,Mostly Cloudy,10,2013-03-19 02:00:00
2:30 AM,35.6,32.0,87,29.44,6.2,North,11.5,-,N/A,,Mostly Cloudy,360,2013-03-19 02:30:00
3:00 AM,33.8,32.0,93,29.42,6.2,North,10.4,-,N/A,,Mostly Cloudy,360,2013-03-19 03:00:00
3:30 AM,33.8,32.0,93,29.44,6.2,North,15.0,-,N/A,Rain-Snow,Light Rain Showers,360,2013-03-19 03:30:00
4:00 AM,33.8,32.0,93,29.44,6.2,North,11.5,-,N/A,Rain-Snow,Light Rain Showers,350,2013-03-19 04:00:00
4:30 AM,33.8,32.0,93,29.42,6.2,NNW,10.4,-,N/A,Rain-Snow,Light Rain Showers,330,2013-03-19 04:30:00
5:00 AM,33.8,32.0,93,29.44,6.2,NNW,9.2,-,N/A,Rain-Snow,Light Rain Showers,340,2013-03-19 05:00:00
5:30 AM,33.8,32.0,93,29.44,5.6,NNW,10.4,-,N/A,Rain-Snow,Light Rain Showers,330,2013-03-19 05:30:00
6:00 AM,33,32,93,29.46,6,NNW,11.2,,,Snow,Light Snow Showers,330,2013-03-19 06:00:00
6:00 AM,33.8,32.0,93,29.44,5.6,NNW,11.5,-,N/A,Rain-Snow,Light Rain Showers,330,2013-03-19 06:00:00
6:30 AM,33.8,32.0,93,29.44,1.6,NNW,11.5,-,N/A,Rain-Snow,Light Rain Showers,340,2013-03-19 06:30:00
7:00 AM,32.0,32.0,100,29.42,2.2,NNW,12.7,-,N/A,Rain-Snow,Light Rain Showers,330,2013-03-19 07:00:00
7:30 AM,32.0,32.0,100,29.44,5.0,NW,11.5,-,N/A,,Mostly Cloudy,320,2013-03-19 07:30:00
8:00 AM,32.0,32.0,100,29.44,3.1,NW,9.2,-,N/A,Snow,Light Snow Showers,320,2013-03-19 08:00:00
8:30 AM,32.0,32.0,100,29.44,6.2,NW,8.1,-,N/A,,Partly Cloudy,320,2013-03-19 08:30:00
9:00 AM,33.8,33.8,100,29.44,6.2,WNW,6.9,-,N/A,Snow,Light Snow Showers,300,2013-03-19 09:00:00
9:30 AM,33.8,33.8,100,29.44,6.2,NW,5.8,-,N/A,,Mostly Cloudy,320,2013-03-19 09:30:00
10:00 AM,35.6,33.8,93,29.44,6.2,Variable,3.5,-,N/A,,Mostly Cloudy,0,2013-03-19 10:00:00
10:30 AM,35.6,33.8,93,29.44,6.2,NNW,10.4,-,N/A,Rain,Light Rain Showers,330,2013-03-19 10:30:00
11:00 AM,35.6,35.6,100,29.44,6.2,East,5.8,-,N/A,Rain,Light Rain Showers,100,2013-03-19 11:00:00
11:30 AM,33.8,33.8,100,29.44,6.2,West,4.6,-,N/A,,Mostly Cloudy,280,2013-03-19 11:30:00
12:00 PM,36,35,92,29.48,9,West,6.7,,,Rain,Light Rain Showers,280,2013-03-19 12:00:00
12:00 PM,35.6,35.6,100,29.44,6.2,West,4.6,-,N/A,Rain,Light Rain Showers,280,2013-03-19 12:00:00
12:30 PM,35.6,33.8,93,29.44,3.7,WNW,6.9,-,N/A,Rain,Light Rain Showers,300,2013-03-19 12:30:00
1:00 PM,35.6,33.8,93,29.44,6.2,NNE,12.7,-,N/A,,Scattered Clouds,30,2013-03-19 13:00:00
1:30 PM,35.6,35.6,100,29.44,6.2,NNE,15.0,-,N/A,Rain,Light Rain Showers,20,2013-03-19 13:30:00
2:00 PM,37.4,35.6,93,29.44,3.7,NNE,15.0,-,N/A,Rain,Light Rain Showers,20,2013-03-19 14:00:00
2:30 PM,35.6,35.6,100,29.44,6.2,North,6.9,-,N/A,,Mostly Cloudy,360,2013-03-19 14:30:00
3:00 PM,39.2,37.4,93,29.44,6.2,NNE,10.4,-,N/A,,Partly Cloudy,20,2013-03-19 15:00:00
3:30 PM,37.4,35.6,93,29.44,6.2,North,13.8,-,N/A,,Partly Cloudy,10,2013-03-19 15:30:00
4:00 PM,37.4,35.6,93,29.44,6.2,NNE,9.2,-,N/A,,Partly Cloudy,20,2013-03-19 16:00:00
4:30 PM,39.2,35.6,87,29.44,6.2,NNE,11.5,-,N/A,,Partly Cloudy,30,2013-03-19 16:30:00
5:00 PM,37.4,35.6,93,29.44,6.2,North,9.2,-,N/A,,Mostly Cloudy,10,2013-03-19 17:00:00
5:30 PM,37.4,35.6,93,29.44,6.2,North,5.8,-,N/A,,Mostly Cloudy,350,2013-03-19 17:30:00
6:00 PM,36,34,88,29.48,16,North,8.9,,,Rain,Light Rain Showers,10,2013-03-19 18:00:00
6:00 PM,37.4,33.8,87,29.44,6.2,North,8.1,-,N/A,,Mostly Cloudy,360,2013-03-19 18:00:00
6:30 PM,35.6,33.8,93,29.47,6.2,North,8.1,-,N/A,,Mostly Cloudy,10,2013-03-19 18:30:00
7:00 PM,35.6,33.8,93,29.47,6.2,NNW,5.8,-,N/A,,Mostly Cloudy,340,2013-03-19 19:00:00
7:30 PM,35.6,33.8,93,29.47,6.2,North,5.8,-,N/A,,Mostly Cloudy,350,2013-03-19 19:30:00
8:00 PM,33.8,33.8,100,29.47,6.2,NNW,5.8,-,N/A,,Mostly Cloudy,340,2013-03-19 20:00:00
8:30 PM,33.8,33.8,100,29.47,6.2,NW,4.6,-,N/A,,Mostly Cloudy,320,2013-03-19 20:30:00
9:00 PM,33.8,33.8,100,29.47,6.2,WNW,5.8,-,N/A,,Mostly Cloudy,290,2013-03-19 21:00:00
9:30 PM,33.8,33.8,100,29.50,5.0,WNW,6.9,-,N/A,,Mostly Cloudy,300,2013-03-19 21:30:00
10:00 PM,33.8,33.8,100,29.50,4.3,NW,5.8,-,N/A,Rain-Snow,Light Rain Showers,310,2013-03-19 22:00:00
10:30 PM,33.8,33.8,100,29.50,3.7,WNW,5.8,-,N/A,Rain-Snow,Light Rain Showers,290,2013-03-19 22:30:00
11:00 PM,33.8,33.8,100,29.50,3.1,WNW,6.9,-,N/A,,Mostly Cloudy,300,2013-03-19 23:00:00
11:30 PM,32.0,32.0,100,29.50,2.8,NW,6.9,-,N/A,,Scattered Clouds,310,2013-03-19 23:30:00